Time;durP1;ratioP1;P1;durP2;ratioP2;P2;SDS_P1;SDS_P2;PMS_P1;PMS_P2;Temp;Humidity;BMP_temperature;BMP_pressure;BME280_temperature;BME280_humidity;BME280_pressure;Samples;Min_cycle;Max_cycle;Signal;HPM_P1;HPM_P2
2023/04/02 00:09:01;;;;;;;2.67;1.90;;;11.30;99.20;;;;;;21235736;28;20269;-78
2023/04/02 00:19:06;;;;;;;2.40;1.80;;;11.30;99.10;;;;;;21236008;28;20528;-81
2023/04/02 00:29:10;;;;;;;1.90;1.60;;;11.30;99.10;;;;;;21235283;28;20647;-81
2023/04/02 00:40:50;;;;;;;1.77;1.43;;;11.20;99.00;;;;;;21068738;27;20665;-79
2023/04/02 00:50:53;;;;;;;2.50;1.60;;;11.20;99.00;;;;;;21067136;28;20209;-76
2023/04/02 01:00:55;;;;;;;1.50;1.40;;;11.10;99.10;;;;;;21066902;28;20213;-75
2023/04/02 01:11:22;;;;;;;2.30;1.50;;;11.10;99.00;;;;;;21066060;28;20201;-76
2023/04/02 01:21:40;;;;;;;3.20;1.90;;;11.00;99.10;;;;;;21065251;28;20209;-79
2023/04/02 01:31:45;;;;;;;1.70;1.60;;;11.00;99.30;;;;;;21064440;28;20246;-79
2023/04/02 01:42:01;;;;;;;1.80;1.60;;;11.00;99.60;;;;;;21063783;28;20305;-79
2023/04/02 01:52:03;;;;;;;6.73;2.70;;;11.00;99.90;;;;;;20976910;28;20755;-79
2023/04/02 02:02:09;;;;;;;6.97;4.40;;;11.00;99.90;;;;;;20922218;28;20279;-79
2023/04/02 02:12:13;;;;;;;3.60;2.57;;;11.10;99.90;;;;;;20922941;28;20235;-79
2023/04/02 02:22:15;;;;;;;5.80;2.70;;;11.10;99.90;;;;;;20921965;28;20219;-79
2023/04/02 02:32:24;;;;;;;3.00;2.40;;;11.10;99.90;;;;;;20920881;28;20243;-79
2023/04/02 02:42:38;;;;;;;2.60;2.10;;;11.10;99.90;;;;;;20921720;28;20618;-76
2023/04/02 02:52:46;;;;;;;6.43;3.77;;;11.10;99.90;;;;;;20955345;28;20249;-77
2023/04/02 03:02:48;;;;;;;3.43;2.97;;;11.10;99.90;;;;;;21016360;28;20352;-78
2023/04/02 03:13:18;;;;;;;2.90;2.60;;;11.20;99.90;;;;;;21009206;28;20276;-78
2023/04/02 03:23:28;;;;;;;9.70;3.60;;;11.10;99.90;;;;;;20999930;28;20593;-76
2023/04/02 03:33:39;;;;;;;4.90;2.60;;;11.10;99.90;;;;;;20998443;28;20243;-78
2023/04/02 03:43:48;;;;;;;4.97;3.43;;;11.10;99.90;;;;;;20998521;28;20205;-78
2023/04/02 03:53:50;;;;;;;3.70;2.47;;;11.00;99.90;;;;;;20952211;28;20274;-78
2023/04/02 04:03:54;;;;;;;2.97;2.67;;;11.00;99.90;;;;;;20914271;28;20208;-79
2023/04/02 04:14:02;;;;;;;4.50;3.03;;;11.10;99.90;;;;;;20913749;28;20247;-79
2023/04/02 04:24:15;;;;;;;3.10;2.40;;;11.20;99.90;;;;;;20912850;28;20210;-76
2023/04/02 04:34:19;;;;;;;3.00;2.70;;;11.10;99.90;;;;;;20912080;28;20239;-80
2023/04/02 04:44:42;;;;;;;3.50;2.10;;;11.10;99.90;;;;;;20912655;28;20211;-80
2023/04/02 04:54:45;;;;;;;2.60;2.37;;;11.10;99.90;;;;;;20964462;28;20235;-80
2023/04/02 05:04:51;;;;;;;2.13;1.93;;;11.00;99.90;;;;;;20994163;28;20271;-80
2023/04/02 05:15:00;;;;;;;3.03;2.40;;;11.10;99.90;;;;;;20993875;28;20600;-76
2023/04/02 05:25:18;;;;;;;4.17;3.33;;;11.10;99.90;;;;;;21005257;28;20263;-80
2023/04/02 05:35:30;;;;;;;3.13;2.70;;;11.20;99.90;;;;;;21008101;28;20235;-76
2023/04/02 05:45:37;;;;;;;2.30;2.10;;;11.00;99.90;;;;;;21007346;28;20214;-76
2023/04/02 05:55:48;;;;;;;3.80;2.63;;;10.90;99.90;;;;;;20946548;28;20240;-77
2023/04/02 06:05:52;;;;;;;3.70;3.23;;;11.00;99.90;;;;;;20923009;28;20210;-77
2023/04/02 06:15:54;;;;;;;3.43;2.97;;;11.00;99.90;;;;;;20922062;28;20238;-80
2023/04/02 06:26:08;;;;;;;5.00;3.23;;;11.10;99.90;;;;;;20922257;28;20219;-80
2023/04/02 06:36:11;;;;;;;0.70;0.70;;;10.90;99.90;;;;;;20932877;28;20237;-78
2023/04/02 06:46:31;;;;;;;2.30;0.80;;;10.50;99.90;;;;;;20953051;28;20212;-79
2023/04/02 06:56:48;;;;;;;0.80;0.70;;;10.40;99.90;;;;;;20987443;28;20554;-77
2023/04/02 07:06:50;;;;;;;1.10;0.80;;;10.40;99.90;;;;;;21001018;28;20292;-76
2023/04/02 07:16:52;;;;;;;0.70;0.67;;;10.40;99.90;;;;;;21000622;28;20635;-78
2023/04/02 07:26:53;;;;;;;0.60;0.60;;;10.30;99.80;;;;;;21000069;28;20263;-80
2023/04/02 07:36:55;;;;;;;1.20;0.70;;;10.20;99.40;;;;;;20998684;28;20239;-79
2023/04/02 07:46:56;;;;;;;0.80;0.80;;;10.20;99.20;;;;;;20997414;28;20277;-80
2023/04/02 07:56:58;;;;;;;0.70;0.70;;;10.10;99.00;;;;;;20925830;28;20585;-79
2023/04/02 08:07:00;;;;;;;0.70;0.70;;;10.30;98.70;;;;;;20914124;28;20204;-80
2023/04/02 08:17:02;;;;;;;2.83;0.80;;;10.30;98.50;;;;;;20915131;28;20328;-80
2023/04/02 08:27:04;;;;;;;1.67;0.70;;;10.20;98.10;;;;;;20913226;28;20209;-78
2023/04/02 08:39:53;;;;;;;2.60;0.80;;;10.20;97.80;;;;;;21068692;27;20570;-79
2023/04/02 08:50:00;;;;;;;0.70;0.70;;;10.30;97.60;;;;;;21067841;28;20204;-80
2023/04/02 09:05:40;;;;;;;1.17;0.80;;;10.20;97.20;;;;;;21152568;27;21116;-79
2023/04/02 09:15:42;;;;;;;0.80;0.80;;;10.40;96.90;;;;;;21151725;28;20226;-79
2023/04/02 09:25:47;;;;;;;1.23;0.90;;;10.50;96.70;;;;;;21151294;28;20203;-79
2023/04/02 09:36:04;;;;;;;1.00;0.90;;;10.40;95.70;;;;;;21150037;28;20204;-76
2023/04/02 09:46:12;;;;;;;0.83;0.83;;;10.30;95.50;;;;;;21148958;28;20237;-81
2023/04/02 09:56:22;;;;;;;1.60;1.23;;;10.30;94.90;;;;;;21148659;28;20232;-78
2023/04/02 10:07:52;;;;;;;1.00;0.90;;;10.20;94.40;;;;;;21081678;27;20752;-80
2023/04/02 10:18:06;;;;;;;1.73;0.90;;;10.30;94.30;;;;;;21125605;28;20208;-78
2023/04/02 10:28:28;;;;;;;1.23;0.80;;;10.50;94.00;;;;;;21068048;28;20265;-80
2023/04/02 10:38:41;;;;;;;0.70;0.70;;;10.50;93.70;;;;;;21065511;28;20232;-78
2023/04/02 10:48:57;;;;;;;0.87;0.87;;;10.50;93.50;;;;;;21064806;28;20298;-76
2023/04/02 10:59:11;;;;;;;1.00;1.00;;;10.40;93.20;;;;;;21063628;28;20578;-78
2023/04/02 11:09:17;;;;;;;1.20;1.10;;;10.50;93.50;;;;;;21063800;28;20263;-79
2023/04/02 11:19:23;;;;;;;1.20;1.10;;;10.40;93.50;;;;;;21005949;28;20228;-79
2023/04/02 11:35:35;;;;;;;0.80;0.80;;;10.60;93.60;;;;;;21322541;27;20288;-79
2023/04/02 11:45:43;;;;;;;1.20;1.10;;;10.90;93.40;;;;;;21235623;27;20311;-77
2023/04/02 11:55:57;;;;;;;1.30;1.20;;;10.80;93.40;;;;;;21235613;27;20292;-75
2023/04/02 12:05:59;;;;;;;1.30;1.20;;;10.70;93.20;;;;;;21234845;27;20288;-79
2023/04/02 12:16:11;;;;;;;1.30;1.20;;;10.50;93.40;;;;;;21235031;28;20718;-76
2023/04/02 12:26:41;;;;;;;1.53;1.43;;;10.60;93.50;;;;;;21215198;27;20270;-79
2023/04/02 12:36:54;;;;;;;2.23;1.70;;;10.50;93.50;;;;;;21228651;27;20216;-76
2023/04/02 12:46:57;;;;;;;3.73;1.60;;;10.40;93.20;;;;;;21174478;28;20326;-80
2023/04/02 13:04:13;;;;;;;1.80;1.70;;;10.10;92.90;;;;;;21152081;27;20575;-77
2023/04/02 13:14:20;;;;;;;2.87;2.30;;;10.10;92.70;;;;;;21151143;28;20215;-77
2023/04/02 13:24:24;;;;;;;1.60;1.50;;;10.10;92.70;;;;;;21150606;28;20265;-75
2023/04/02 13:34:26;;;;;;;2.03;1.73;;;10.10;92.50;;;;;;21149719;28;20300;-71
2023/04/02 13:44:36;;;;;;;1.83;1.63;;;10.00;92.10;;;;;;21148889;28;20200;-71
2023/04/02 14:03:29;;;;;;;2.03;1.83;;;;;;;;;;20984345;28;20588;-71
2023/04/02 14:23:40;;;;;;;3.60;2.77;;;9.40;91.60;;;;;;21067705;28;20586;-72
2023/04/02 14:34:13;;;;;;;3.17;2.87;;;9.30;91.50;;;;;;21066667;28;20231;-71
2023/04/02 14:44:19;;;;;;;3.13;2.80;;;9.00;90.90;;;;;;21066458;28;20666;-72
2023/04/02 14:54:48;;;;;;;4.00;2.80;;;8.70;90.30;;;;;;21065550;28;20252;-70
2023/04/02 15:04:58;;;;;;;3.07;2.60;;;8.60;90.00;;;;;;21064457;28;20211;-74
2023/04/02 15:15:22;;;;;;;3.13;2.83;;;8.70;88.90;;;;;;21063550;28;20597;-77
2023/04/02 15:25:47;;;;;;;3.00;2.70;;;8.70;88.40;;;;;;21056603;28;20214;-78
2023/04/02 15:36:37;;;;;;;10.03;2.80;;;8.90;87.70;;;;;;21008115;28;20235;-74
2023/04/02 15:47:04;;;;;;;3.10;2.70;;;8.90;86.20;;;;;;20999111;28;20204;-69
2023/04/02 15:57:21;;;;;;;3.57;2.80;;;8.70;84.30;;;;;;20923065;28;20262;-69
2023/04/02 16:07:38;;;;;;;5.10;2.97;;;8.60;83.30;;;;;;20932706;28;20209;-67
2023/04/02 16:17:50;;;;;;;3.07;2.40;;;8.60;81.90;;;;;;20945856;28;20703;-76
2023/04/02 16:28:06;;;;;;;3.93;2.43;;;8.50;81.00;;;;;;20924096;28;20210;-78
2023/04/02 16:38:38;;;;;;;4.23;2.30;;;8.40;80.60;;;;;;20918448;28;20295;-80
2023/04/02 16:49:21;;;;;;;5.40;2.33;;;8.30;80.40;;;;;;20920309;28;20206;-71
2023/04/02 16:59:35;;;;;;;2.37;2.17;;;8.10;79.50;;;;;;20999655;28;20697;-68
2023/04/02 17:09:50;;;;;;;4.53;2.27;;;8.10;79.20;;;;;;20999412;28;20209;-72
2023/04/02 17:23:43;;;;;;;4.23;2.57;;;8.00;78.60;;;;;;21139856;27;20580;-71
2023/04/02 17:33:56;;;;;;;4.00;2.10;;;8.10;78.30;;;;;;21038394;28;20241;-72
2023/04/02 17:44:07;;;;;;;4.23;2.30;;;7.80;76.70;;;;;;21064169;28;20211;-70
2023/04/02 17:54:19;;;;;;;4.90;2.73;;;7.60;76.30;;;;;;21064911;28;20229;-72
2023/04/02 18:07:19;;;;;;;2.40;2.20;;;7.50;76.20;;;;;;20982479;28;20561;-72
2023/04/02 18:17:57;;;;;;;3.90;2.60;;;7.60;76.70;;;;;;20980273;28;20634;-72
2023/04/02 18:28:24;;;;;;;3.33;2.60;;;7.50;77.30;;;;;;20979828;28;20206;-73
2023/04/02 18:38:42;;;;;;;4.60;2.67;;;7.30;77.20;;;;;;20981280;28;20237;-73
2023/04/02 18:48:58;;;;;;;4.37;2.70;;;7.20;77.00;;;;;;20977795;28;20662;-73
2023/04/02 18:59:25;;;;;;;5.53;2.60;;;7.40;77.20;;;;;;20894237;28;20293;-70
2023/04/02 19:09:32;;;;;;;3.40;2.50;;;7.40;77.50;;;;;;20887744;28;20287;-72
2023/04/02 19:20:10;;;;;;;3.40;2.80;;;7.30;77.40;;;;;;20838114;28;20243;-73
2023/04/02 19:30:40;;;;;;;4.43;2.80;;;7.40;77.40;;;;;;20837185;28;20675;-73
2023/04/02 19:40:45;;;;;;;4.40;2.50;;;7.40;77.00;;;;;;20836713;28;20313;-73
2023/04/02 19:50:48;;;;;;;4.00;2.43;;;7.40;77.00;;;;;;20816133;28;20212;-73
2023/04/02 20:00:49;;;;;;;3.80;2.43;;;7.50;77.00;;;;;;20752959;28;20247;-73
2023/04/02 20:10:51;;;;;;;3.77;2.57;;;7.50;76.00;;;;;;20751813;28;20625;-73
2023/04/02 20:20:52;;;;;;;7.30;2.90;;;7.50;74.90;;;;;;20750808;28;20239;-72
2023/04/02 20:31:11;;;;;;;5.37;3.10;;;7.50;74.60;;;;;;20750841;28;20278;-73
2023/04/02 20:41:14;;;;;;;3.87;2.50;;;7.40;73.70;;;;;;20748382;28;20241;-74
2023/04/02 20:51:16;;;;;;;4.23;2.50;;;7.40;73.50;;;;;;20771634;28;20206;-72
2023/04/02 21:01:20;;;;;;;3.83;2.70;;;7.30;73.40;;;;;;20829720;28;20574;-73
2023/04/02 21:11:22;;;;;;;4.13;2.80;;;7.40;73.50;;;;;;20829863;28;20209;-73
2023/04/02 21:21:25;;;;;;;6.00;2.70;;;7.20;73.40;;;;;;20828991;28;20242;-74
2023/04/02 21:31:29;;;;;;;4.37;2.60;;;7.10;73.60;;;;;;20828235;28;20204;-73
2023/04/02 21:41:33;;;;;;;7.97;2.73;;;7.00;74.00;;;;;;20828004;28;20238;-73
2023/04/02 21:51:37;;;;;;;4.00;2.73;;;6.90;74.10;;;;;;20801520;28;20216;-75
2023/04/02 22:01:45;;;;;;;6.37;3.30;;;6.80;74.30;;;;;;20745221;28;20246;-74
2023/04/02 22:11:50;;;;;;;3.50;2.87;;;6.60;74.70;;;;;;20745688;28;20626;-74
2023/04/02 22:21:52;;;;;;;3.57;2.53;;;6.70;74.90;;;;;;20746097;28;20234;-72
2023/04/02 22:31:54;;;;;;;4.93;2.77;;;6.60;74.80;;;;;;20744546;28;20204;-71
2023/04/02 22:41:55;;;;;;;7.30;3.20;;;6.40;74.80;;;;;;20744079;28;20238;-71
2023/04/02 22:51:57;;;;;;;6.07;3.13;;;6.30;75.00;;;;;;20785670;28;20260;-72
2023/04/02 23:01:59;;;;;;;3.27;2.47;;;6.20;75.00;;;;;;20839949;28;20242;-73
2023/04/02 23:12:00;;;;;;;4.47;2.90;;;6.10;75.40;;;;;;20839731;28;20210;-72
2023/04/02 23:22:02;;;;;;;4.60;2.80;;;6.00;75.90;;;;;;20839117;28;20242;-72
2023/04/02 23:32:04;;;;;;;6.83;3.30;;;5.90;76.40;;;;;;20838166;28;20259;-72
2023/04/02 23:42:07;;;;;;;7.97;4.53;;;5.80;77.10;;;;;;20837248;28;20236;-72
2023/04/02 23:52:09;;;;;;;5.47;3.80;;;5.80;78.20;;;;;;20806009;28;20205;-72
